sensor_id;sensor_type;location;lat;lon;timestamp;P1;durP1;ratioP1;P2;durP2;ratioP2
13795;SDS011;40911;51.552;9.874;2024-02-26T00:02:13;8.48;;;6.63;;
13795;SDS011;40911;51.552;9.874;2024-02-26T00:04:35;7.88;;;6.57;;
13795;SDS011;40911;51.552;9.874;2024-02-26T00:06:57;8.35;;;6.32;;
13795;SDS011;40911;51.552;9.874;2024-02-26T00:09:18;7.13;;;6.32;;
13795;SDS011;40911;51.552;9.874;2024-02-26T00:11:40;6.93;;;6.15;;
13795;SDS011;40911;51.552;9.874;2024-02-26T00:14:01;6.47;;;5.88;;
13795;SDS011;40911;51.552;9.874;2024-02-26T00:18:46;6.85;;;5.93;;
13795;SDS011;40911;51.552;9.874;2024-02-26T00:21:08;7.32;;;5.68;;
13795;SDS011;40911;51.552;9.874;2024-02-26T00:23:29;6.03;;;5.53;;
13795;SDS011;40911;51.552;9.874;2024-02-26T00:25:51;9.55;;;5.90;;
13795;SDS011;40911;51.552;9.874;2024-02-26T00:28:13;6.45;;;5.70;;
13795;SDS011;40911;51.552;9.874;2024-02-26T00:30:34;6.20;;;5.50;;
13795;SDS011;40911;51.552;9.874;2024-02-26T00:32:56;6.43;;;5.80;;
13795;SDS011;40911;51.552;9.874;2024-02-26T00:35:19;5.32;;;4.88;;
13795;SDS011;40911;51.552;9.874;2024-02-26T00:37:41;6.57;;;5.47;;
13795;SDS011;40911;51.552;9.874;2024-02-26T00:40:04;6.22;;;5.13;;
13795;SDS011;40911;51.552;9.874;2024-02-26T00:42:28;6.03;;;5.30;;
13795;SDS011;40911;51.552;9.874;2024-02-26T00:44:50;7.18;;;5.03;;
13795;SDS011;40911;51.552;9.874;2024-02-26T00:47:12;6.28;;;5.60;;
13795;SDS011;40911;51.552;9.874;2024-02-26T00:49:33;5.70;;;5.20;;
13795;SDS011;40911;51.552;9.874;2024-02-26T00:51:56;5.63;;;5.22;;
13795;SDS011;40911;51.552;9.874;2024-02-26T00:54:18;7.05;;;5.45;;
13795;SDS011;40911;51.552;9.874;2024-02-26T00:56:39;6.32;;;5.68;;
13795;SDS011;40911;51.552;9.874;2024-02-26T00:59:01;5.90;;;5.40;;
13795;SDS011;40911;51.552;9.874;2024-02-26T01:01:22;6.07;;;5.47;;
13795;SDS011;40911;51.552;9.874;2024-02-26T01:03:44;6.85;;;5.70;;
13795;SDS011;40911;51.552;9.874;2024-02-26T01:06:06;5.70;;;5.20;;
13795;SDS011;40911;51.552;9.874;2024-02-26T01:08:28;5.60;;;5.10;;
13795;SDS011;40911;51.552;9.874;2024-02-26T01:10:51;6.10;;;5.53;;
13795;SDS011;40911;51.552;9.874;2024-02-26T01:13:13;6.47;;;5.25;;
13795;SDS011;40911;51.552;9.874;2024-02-26T01:17:56;6.28;;;5.20;;
13795;SDS011;40911;51.552;9.874;2024-02-26T01:20:17;5.38;;;4.97;;
13795;SDS011;40911;51.552;9.874;2024-02-26T01:22:39;5.80;;;5.20;;
13795;SDS011;40911;51.552;9.874;2024-02-26T01:25:02;6.07;;;5.18;;
13795;SDS011;40911;51.552;9.874;2024-02-26T01:27:24;5.38;;;4.88;;
13795;SDS011;40911;51.552;9.874;2024-02-26T01:29:47;5.55;;;5.05;;
13795;SDS011;40911;51.552;9.874;2024-02-26T01:32:09;5.63;;;5.13;;
13795;SDS011;40911;51.552;9.874;2024-02-26T01:34:30;5.90;;;5.40;;
13795;SDS011;40911;51.552;9.874;2024-02-26T01:36:52;7.32;;;5.43;;
13795;SDS011;40911;51.552;9.874;2024-02-26T01:39:13;5.53;;;4.95;;
13795;SDS011;40911;51.552;9.874;2024-02-26T01:41:36;5.97;;;5.47;;
13795;SDS011;40911;51.552;9.874;2024-02-26T01:43:58;5.53;;;5.03;;
13795;SDS011;40911;51.552;9.874;2024-02-26T01:46:19;5.53;;;5.03;;
13795;SDS011;40911;51.552;9.874;2024-02-26T01:48:41;5.68;;;5.10;;
13795;SDS011;40911;51.552;9.874;2024-02-26T01:51:04;5.45;;;5.00;;
13795;SDS011;40911;51.552;9.874;2024-02-26T01:53:26;5.93;;;4.97;;
13795;SDS011;40911;51.552;9.874;2024-02-26T01:55:48;7.13;;;5.93;;
13795;SDS011;40911;51.552;9.874;2024-02-26T02:00:33;7.43;;;5.30;;
13795;SDS011;40911;51.552;9.874;2024-02-26T02:05:16;6.97;;;5.50;;
13795;SDS011;40911;51.552;9.874;2024-02-26T02:07:38;6.22;;;5.38;;
13795;SDS011;40911;51.552;9.874;2024-02-26T02:10:01;5.35;;;4.85;;
13795;SDS011;40911;51.552;9.874;2024-02-26T02:14:45;5.65;;;5.10;;
13795;SDS011;40911;51.552;9.874;2024-02-26T02:17:07;6.18;;;5.57;;
13795;SDS011;40911;51.552;9.874;2024-02-26T02:19:28;5.97;;;5.40;;
13795;SDS011;40911;51.552;9.874;2024-02-26T02:21:51;6.22;;;5.30;;
13795;SDS011;40911;51.552;9.874;2024-02-26T02:24:13;6.72;;;5.53;;
13795;SDS011;40911;51.552;9.874;2024-02-26T02:26:35;5.55;;;5.05;;
13795;SDS011;40911;51.552;9.874;2024-02-26T02:31:18;5.63;;;5.03;;
13795;SDS011;40911;51.552;9.874;2024-02-26T02:33:42;5.40;;;4.90;;
13795;SDS011;40911;51.552;9.874;2024-02-26T02:36:04;8.35;;;5.20;;
13795;SDS011;40911;51.552;9.874;2024-02-26T02:38:31;5.35;;;4.95;;
13795;SDS011;40911;51.552;9.874;2024-02-26T02:40:54;9.00;;;5.53;;
13795;SDS011;40911;51.552;9.874;2024-02-26T02:43:15;7.22;;;5.60;;
13795;SDS011;40911;51.552;9.874;2024-02-26T02:45:37;7.30;;;5.30;;
13795;SDS011;40911;51.552;9.874;2024-02-26T02:47:58;6.03;;;5.53;;
13795;SDS011;40911;51.552;9.874;2024-02-26T02:50:20;5.28;;;4.88;;
13795;SDS011;40911;51.552;9.874;2024-02-26T02:52:41;7.68;;;5.55;;
13795;SDS011;40911;51.552;9.874;2024-02-26T02:55:05;5.70;;;5.18;;
13795;SDS011;40911;51.552;9.874;2024-02-26T02:57:27;5.60;;;5.10;;
13795;SDS011;40911;51.552;9.874;2024-02-26T03:02:10;5.28;;;4.78;;
13795;SDS011;40911;51.552;9.874;2024-02-26T03:04:30;6.50;;;5.00;;
13795;SDS011;40911;51.552;9.874;2024-02-26T03:06:52;5.18;;;4.70;;
13795;SDS011;40911;51.552;9.874;2024-02-26T03:09:14;5.70;;;5.20;;
13795;SDS011;40911;51.552;9.874;2024-02-26T03:11:37;6.10;;;5.50;;
13795;SDS011;40911;51.552;9.874;2024-02-26T03:13:59;5.32;;;4.82;;
13795;SDS011;40911;51.552;9.874;2024-02-26T03:16:20;6.65;;;5.13;;
13795;SDS011;40911;51.552;9.874;2024-02-26T03:18:42;5.97;;;5.20;;
13795;SDS011;40911;51.552;9.874;2024-02-26T03:21:03;5.43;;;4.93;;
13795;SDS011;40911;51.552;9.874;2024-02-26T03:23:25;5.60;;;5.10;;
13795;SDS011;40911;51.552;9.874;2024-02-26T03:25:47;5.40;;;5.00;;
13795;SDS011;40911;51.552;9.874;2024-02-26T03:30:31;6.63;;;5.20;;
13795;SDS011;40911;51.552;9.874;2024-02-26T03:32:53;5.40;;;4.90;;
13795;SDS011;40911;51.552;9.874;2024-02-26T03:35:14;6.68;;;5.15;;
13795;SDS011;40911;51.552;9.874;2024-02-26T03:37:36;5.70;;;5.18;;
13795;SDS011;40911;51.552;9.874;2024-02-26T03:39:57;5.82;;;5.30;;
13795;SDS011;40911;51.552;9.874;2024-02-26T03:42:21;5.32;;;4.82;;
13795;SDS011;40911;51.552;9.874;2024-02-26T03:44:44;6.97;;;5.47;;
13795;SDS011;40911;51.552;9.874;2024-02-26T03:47:05;6.00;;;4.82;;
13795;SDS011;40911;51.552;9.874;2024-02-26T03:49:27;5.75;;;5.28;;
13795;SDS011;40911;51.552;9.874;2024-02-26T03:54:10;5.10;;;4.68;;
13795;SDS011;40911;51.552;9.874;2024-02-26T03:56:32;5.47;;;4.82;;
13795;SDS011;40911;51.552;9.874;2024-02-26T03:58:53;5.30;;;4.85;;
13795;SDS011;40911;51.552;9.874;2024-02-26T04:03:38;5.20;;;4.70;;
13795;SDS011;40911;51.552;9.874;2024-02-26T04:05:59;5.03;;;4.60;;
13795;SDS011;40911;51.552;9.874;2024-02-26T04:10:43;5.18;;;4.68;;
13795;SDS011;40911;51.552;9.874;2024-02-26T04:13:04;4.72;;;4.43;;
13795;SDS011;40911;51.552;9.874;2024-02-26T04:15:26;5.78;;;5.10;;
13795;SDS011;40911;51.552;9.874;2024-02-26T04:20:13;4.93;;;4.50;;
13795;SDS011;40911;51.552;9.874;2024-02-26T04:22:35;5.55;;;5.05;;
13795;SDS011;40911;51.552;9.874;2024-02-26T04:24:57;5.35;;;4.88;;
13795;SDS011;40911;51.552;9.874;2024-02-26T04:27:18;5.47;;;4.97;;
13795;SDS011;40911;51.552;9.874;2024-02-26T04:29:40;5.05;;;4.60;;
13795;SDS011;40911;51.552;9.874;2024-02-26T04:32:02;5.13;;;4.70;;
13795;SDS011;40911;51.552;9.874;2024-02-26T04:34:25;8.35;;;4.97;;
13795;SDS011;40911;51.552;9.874;2024-02-26T04:36:46;7.10;;;5.10;;
13795;SDS011;40911;51.552;9.874;2024-02-26T04:39:09;5.45;;;4.60;;
13795;SDS011;40911;51.552;9.874;2024-02-26T04:41:31;6.15;;;5.00;;
13795;SDS011;40911;51.552;9.874;2024-02-26T04:43:52;5.38;;;4.90;;
13795;SDS011;40911;51.552;9.874;2024-02-26T04:46:14;5.28;;;4.88;;
13795;SDS011;40911;51.552;9.874;2024-02-26T04:48:36;6.75;;;4.93;;
13795;SDS011;40911;51.552;9.874;2024-02-26T04:50:59;6.07;;;4.57;;
13795;SDS011;40911;51.552;9.874;2024-02-26T04:53:21;5.00;;;4.60;;
13795;SDS011;40911;51.552;9.874;2024-02-26T04:55:43;5.50;;;5.00;;
13795;SDS011;40911;51.552;9.874;2024-02-26T04:58:05;9.95;;;5.03;;
13795;SDS011;40911;51.552;9.874;2024-02-26T05:02:48;4.82;;;4.43;;
13795;SDS011;40911;51.552;9.874;2024-02-26T05:05:10;5.57;;;5.00;;
13795;SDS011;40911;51.552;9.874;2024-02-26T05:07:34;5.72;;;4.55;;
13795;SDS011;40911;51.552;9.874;2024-02-26T05:10:01;4.93;;;4.45;;
13795;SDS011;40911;51.552;9.874;2024-02-26T05:12:23;5.45;;;4.95;;
13795;SDS011;40911;51.552;9.874;2024-02-26T05:14:45;5.68;;;4.70;;
13795;SDS011;40911;51.552;9.874;2024-02-26T05:17:06;6.63;;;5.35;;
13795;SDS011;40911;51.552;9.874;2024-02-26T05:19:28;5.30;;;4.75;;
13795;SDS011;40911;51.552;9.874;2024-02-26T05:21:49;5.20;;;4.70;;
13795;SDS011;40911;51.552;9.874;2024-02-26T05:24:12;6.15;;;5.22;;
13795;SDS011;40911;51.552;9.874;2024-02-26T05:26:35;5.72;;;5.13;;
13795;SDS011;40911;51.552;9.874;2024-02-26T05:31:19;5.70;;;5.10;;
13795;SDS011;40911;51.552;9.874;2024-02-26T05:33:41;8.00;;;5.90;;
13795;SDS011;40911;51.552;9.874;2024-02-26T05:36:03;8.07;;;5.43;;
13795;SDS011;40911;51.552;9.874;2024-02-26T05:38:25;7.10;;;5.53;;
13795;SDS011;40911;51.552;9.874;2024-02-26T05:40:48;7.80;;;5.88;;
13795;SDS011;40911;51.552;9.874;2024-02-26T05:43:12;7.25;;;5.57;;
13795;SDS011;40911;51.552;9.874;2024-02-26T05:45:35;8.63;;;6.50;;
13795;SDS011;40911;51.552;9.874;2024-02-26T05:47:58;9.52;;;6.78;;
13795;SDS011;40911;51.552;9.874;2024-02-26T05:50:19;9.25;;;6.60;;
13795;SDS011;40911;51.552;9.874;2024-02-26T05:52:42;9.85;;;7.38;;
13795;SDS011;40911;51.552;9.874;2024-02-26T05:55:04;9.70;;;7.13;;
13795;SDS011;40911;51.552;9.874;2024-02-26T05:57:27;10.50;;;7.35;;
13795;SDS011;40911;51.552;9.874;2024-02-26T05:59:49;13.90;;;8.00;;
13795;SDS011;40911;51.552;9.874;2024-02-26T06:02:11;10.88;;;7.15;;
13795;SDS011;40911;51.552;9.874;2024-02-26T06:04:32;12.90;;;7.88;;
13795;SDS011;40911;51.552;9.874;2024-02-26T06:06:54;10.93;;;6.70;;
13795;SDS011;40911;51.552;9.874;2024-02-26T06:09:15;10.07;;;6.85;;
13795;SDS011;40911;51.552;9.874;2024-02-26T06:11:37;10.02;;;6.25;;
13795;SDS011;40911;51.552;9.874;2024-02-26T06:14:00;8.20;;;6.28;;
13795;SDS011;40911;51.552;9.874;2024-02-26T06:16:21;8.40;;;6.68;;
13795;SDS011;40911;51.552;9.874;2024-02-26T06:18:43;9.75;;;6.85;;
13795;SDS011;40911;51.552;9.874;2024-02-26T06:21:08;10.20;;;7.65;;
13795;SDS011;40911;51.552;9.874;2024-02-26T06:23:30;12.60;;;7.85;;
13795;SDS011;40911;51.552;9.874;2024-02-26T06:25:52;13.75;;;8.65;;
13795;SDS011;40911;51.552;9.874;2024-02-26T06:28:13;13.13;;;8.73;;
13795;SDS011;40911;51.552;9.874;2024-02-26T06:32:58;11.88;;;8.15;;
13795;SDS011;40911;51.552;9.874;2024-02-26T06:35:19;11.88;;;7.50;;
13795;SDS011;40911;51.552;9.874;2024-02-26T06:37:41;12.85;;;7.47;;
13795;SDS011;40911;51.552;9.874;2024-02-26T06:40:03;11.38;;;7.93;;
13795;SDS011;40911;51.552;9.874;2024-02-26T06:42:26;11.63;;;7.50;;
13795;SDS011;40911;51.552;9.874;2024-02-26T06:44:49;14.30;;;8.38;;
13795;SDS011;40911;51.552;9.874;2024-02-26T06:47:12;14.27;;;8.73;;
13795;SDS011;40911;51.552;9.874;2024-02-26T06:49:34;17.63;;;9.43;;
13795;SDS011;40911;51.552;9.874;2024-02-26T06:51:55;13.70;;;8.35;;
13795;SDS011;40911;51.552;9.874;2024-02-26T06:54:17;10.93;;;8.07;;
13795;SDS011;40911;51.552;9.874;2024-02-26T06:56:38;13.32;;;8.50;;
13795;SDS011;40911;51.552;9.874;2024-02-26T06:59:00;12.70;;;8.32;;
13795;SDS011;40911;51.552;9.874;2024-02-26T07:01:21;15.90;;;8.80;;
13795;SDS011;40911;51.552;9.874;2024-02-26T07:03:44;12.00;;;7.55;;
13795;SDS011;40911;51.552;9.874;2024-02-26T07:06:06;12.75;;;8.25;;
13795;SDS011;40911;51.552;9.874;2024-02-26T07:08:28;13.40;;;7.88;;
13795;SDS011;40911;51.552;9.874;2024-02-26T07:10:50;11.93;;;7.72;;
13795;SDS011;40911;51.552;9.874;2024-02-26T07:13:12;9.35;;;7.00;;
13795;SDS011;40911;51.552;9.874;2024-02-26T07:15:33;9.05;;;6.97;;
13795;SDS011;40911;51.552;9.874;2024-02-26T07:17:55;11.40;;;7.25;;
13795;SDS011;40911;51.552;9.874;2024-02-26T07:22:40;7.65;;;5.78;;
13795;SDS011;40911;51.552;9.874;2024-02-26T07:25:02;7.20;;;5.55;;
13795;SDS011;40911;51.552;9.874;2024-02-26T07:27:24;8.02;;;5.63;;
13795;SDS011;40911;51.552;9.874;2024-02-26T07:29:46;6.00;;;5.38;;
13795;SDS011;40911;51.552;9.874;2024-02-26T07:32:07;5.55;;;4.88;;
13795;SDS011;40911;51.552;9.874;2024-02-26T07:34:30;6.68;;;5.43;;
13795;SDS011;40911;51.552;9.874;2024-02-26T07:36:53;6.88;;;5.32;;
13795;SDS011;40911;51.552;9.874;2024-02-26T07:39:15;6.57;;;5.10;;
13795;SDS011;40911;51.552;9.874;2024-02-26T07:41:36;5.65;;;4.93;;
13795;SDS011;40911;51.552;9.874;2024-02-26T07:43:59;8.02;;;4.95;;
13795;SDS011;40911;51.552;9.874;2024-02-26T07:46:20;6.00;;;4.40;;
13795;SDS011;40911;51.552;9.874;2024-02-26T07:48:42;4.78;;;4.32;;
13795;SDS011;40911;51.552;9.874;2024-02-26T07:51:03;5.80;;;4.72;;
13795;SDS011;40911;51.552;9.874;2024-02-26T07:55:48;5.07;;;4.30;;
13795;SDS011;40911;51.552;9.874;2024-02-26T07:58:09;7.47;;;4.47;;
13795;SDS011;40911;51.552;9.874;2024-02-26T08:00:31;5.80;;;4.53;;
13795;SDS011;40911;51.552;9.874;2024-02-26T08:02:53;7.78;;;5.13;;
13795;SDS011;40911;51.552;9.874;2024-02-26T08:05:14;4.43;;;4.03;;
13795;SDS011;40911;51.552;9.874;2024-02-26T08:07:36;4.72;;;4.15;;
13795;SDS011;40911;51.552;9.874;2024-02-26T08:09:59;6.13;;;4.25;;
13795;SDS011;40911;51.552;9.874;2024-02-26T08:12:21;4.85;;;4.43;;
13795;SDS011;40911;51.552;9.874;2024-02-26T08:14:42;4.63;;;4.22;;
13795;SDS011;40911;51.552;9.874;2024-02-26T08:19:26;5.38;;;4.38;;
13795;SDS011;40911;51.552;9.874;2024-02-26T08:21:48;4.50;;;4.20;;
13795;SDS011;40911;51.552;9.874;2024-02-26T08:24:09;5.07;;;4.57;;
13795;SDS011;40911;51.552;9.874;2024-02-26T08:26:32;4.65;;;4.07;;
13795;SDS011;40911;51.552;9.874;2024-02-26T08:28:54;4.97;;;4.30;;
13795;SDS011;40911;51.552;9.874;2024-02-26T08:33:37;5.15;;;4.10;;
13795;SDS011;40911;51.552;9.874;2024-02-26T08:35:59;7.72;;;5.43;;
13795;SDS011;40911;51.552;9.874;2024-02-26T08:38:21;5.10;;;4.60;;
13795;SDS011;40911;51.552;9.874;2024-02-26T08:40:42;6.63;;;5.13;;
13795;SDS011;40911;51.552;9.874;2024-02-26T08:43:05;6.28;;;4.90;;
13795;SDS011;40911;51.552;9.874;2024-02-26T08:45:28;6.78;;;5.10;;
13795;SDS011;40911;51.552;9.874;2024-02-26T08:47:50;8.40;;;5.28;;
13795;SDS011;40911;51.552;9.874;2024-02-26T08:50:11;7.22;;;5.47;;
13795;SDS011;40911;51.552;9.874;2024-02-26T08:52:33;5.78;;;5.10;;
13795;SDS011;40911;51.552;9.874;2024-02-26T08:54:54;6.20;;;5.18;;
13795;SDS011;40911;51.552;9.874;2024-02-26T08:57:17;5.88;;;5.00;;
13795;SDS011;40911;51.552;9.874;2024-02-26T08:59:40;5.32;;;4.63;;
13795;SDS011;40911;51.552;9.874;2024-02-26T09:02:01;7.57;;;4.78;;
13795;SDS011;40911;51.552;9.874;2024-02-26T09:06:44;5.60;;;5.05;;
13795;SDS011;40911;51.552;9.874;2024-02-26T09:09:06;6.20;;;4.90;;
13795;SDS011;40911;51.552;9.874;2024-02-26T09:11:28;8.23;;;5.53;;
13795;SDS011;40911;51.552;9.874;2024-02-26T09:13:49;8.68;;;5.40;;
13795;SDS011;40911;51.552;9.874;2024-02-26T09:16:12;6.57;;;5.32;;
13795;SDS011;40911;51.552;9.874;2024-02-26T09:18:34;9.15;;;5.85;;
13795;SDS011;40911;51.552;9.874;2024-02-26T09:20:55;9.45;;;6.63;;
13795;SDS011;40911;51.552;9.874;2024-02-26T09:23:17;9.73;;;6.20;;
13795;SDS011;40911;51.552;9.874;2024-02-26T09:25:39;10.93;;;7.15;;
13795;SDS011;40911;51.552;9.874;2024-02-26T09:28:00;11.10;;;7.30;;
13795;SDS011;40911;51.552;9.874;2024-02-26T09:32:47;10.60;;;7.40;;
13795;SDS011;40911;51.552;9.874;2024-02-26T09:35:09;11.15;;;7.57;;
13795;SDS011;40911;51.552;9.874;2024-02-26T09:37:30;9.55;;;6.20;;
13795;SDS011;40911;51.552;9.874;2024-02-26T09:39:52;13.27;;;8.40;;
13795;SDS011;40911;51.552;9.874;2024-02-26T09:42:14;11.95;;;8.18;;
13795;SDS011;40911;51.552;9.874;2024-02-26T09:44:40;10.13;;;7.20;;
13795;SDS011;40911;51.552;9.874;2024-02-26T09:47:02;10.07;;;7.22;;
13795;SDS011;40911;51.552;9.874;2024-02-26T09:49:25;10.68;;;7.60;;
13795;SDS011;40911;51.552;9.874;2024-02-26T09:51:47;10.77;;;7.85;;
13795;SDS011;40911;51.552;9.874;2024-02-26T09:54:10;13.93;;;8.43;;
13795;SDS011;40911;51.552;9.874;2024-02-26T09:56:34;14.20;;;8.13;;
13795;SDS011;40911;51.552;9.874;2024-02-26T09:58:57;11.55;;;7.20;;
13795;SDS011;40911;51.552;9.874;2024-02-26T10:01:20;12.15;;;8.23;;
13795;SDS011;40911;51.552;9.874;2024-02-26T10:06:06;13.55;;;8.35;;
13795;SDS011;40911;51.552;9.874;2024-02-26T10:08:28;10.63;;;7.70;;
13795;SDS011;40911;51.552;9.874;2024-02-26T10:10:50;13.32;;;8.10;;
13795;SDS011;40911;51.552;9.874;2024-02-26T10:13:12;15.65;;;8.30;;
13795;SDS011;40911;51.552;9.874;2024-02-26T10:15:34;14.00;;;8.07;;
13795;SDS011;40911;51.552;9.874;2024-02-26T10:17:56;11.43;;;8.20;;
13795;SDS011;40911;51.552;9.874;2024-02-26T10:20:17;13.30;;;8.57;;
13795;SDS011;40911;51.552;9.874;2024-02-26T10:22:43;12.75;;;8.40;;
13795;SDS011;40911;51.552;9.874;2024-02-26T10:25:05;10.80;;;8.25;;
13795;SDS011;40911;51.552;9.874;2024-02-26T10:27:28;11.88;;;8.23;;
13795;SDS011;40911;51.552;9.874;2024-02-26T10:29:49;9.90;;;7.93;;
13795;SDS011;40911;51.552;9.874;2024-02-26T10:32:13;11.13;;;8.02;;
13795;SDS011;40911;51.552;9.874;2024-02-26T10:36:57;10.48;;;7.57;;
13795;SDS011;40911;51.552;9.874;2024-02-26T10:39:24;13.40;;;8.02;;
13795;SDS011;40911;51.552;9.874;2024-02-26T10:41:45;11.60;;;7.90;;
13795;SDS011;40911;51.552;9.874;2024-02-26T10:44:08;11.15;;;7.57;;
13795;SDS011;40911;51.552;9.874;2024-02-26T10:46:32;9.10;;;7.43;;
13795;SDS011;40911;51.552;9.874;2024-02-26T10:48:53;13.13;;;7.47;;
13795;SDS011;40911;51.552;9.874;2024-02-26T10:53:37;16.58;;;7.40;;
13795;SDS011;40911;51.552;9.874;2024-02-26T10:56:03;10.85;;;7.28;;
13795;SDS011;40911;51.552;9.874;2024-02-26T10:58:26;10.90;;;8.10;;
13795;SDS011;40911;51.552;9.874;2024-02-26T11:00:49;12.57;;;7.18;;
13795;SDS011;40911;51.552;9.874;2024-02-26T11:03:11;11.60;;;6.80;;
13795;SDS011;40911;51.552;9.874;2024-02-26T11:05:36;10.30;;;7.28;;
13795;SDS011;40911;51.552;9.874;2024-02-26T11:08:00;8.00;;;6.63;;
13795;SDS011;40911;51.552;9.874;2024-02-26T11:10:23;11.25;;;7.03;;
13795;SDS011;40911;51.552;9.874;2024-02-26T11:12:47;11.18;;;6.85;;
13795;SDS011;40911;51.552;9.874;2024-02-26T11:15:11;7.40;;;6.47;;
13795;SDS011;40911;51.552;9.874;2024-02-26T11:17:33;8.88;;;6.38;;
13795;SDS011;40911;51.552;9.874;2024-02-26T11:19:56;8.20;;;6.93;;
13795;SDS011;40911;51.552;9.874;2024-02-26T11:22:19;11.35;;;6.53;;
13795;SDS011;40911;51.552;9.874;2024-02-26T11:24:42;9.02;;;6.50;;
13795;SDS011;40911;51.552;9.874;2024-02-26T11:27:03;9.15;;;6.47;;
13795;SDS011;40911;51.552;9.874;2024-02-26T11:29:29;8.80;;;6.75;;
13795;SDS011;40911;51.552;9.874;2024-02-26T11:31:55;8.07;;;6.15;;
13795;SDS011;40911;51.552;9.874;2024-02-26T11:34:19;9.73;;;7.05;;
13795;SDS011;40911;51.552;9.874;2024-02-26T11:36:42;10.02;;;6.45;;
13795;SDS011;40911;51.552;9.874;2024-02-26T11:39:04;9.15;;;6.43;;
13795;SDS011;40911;51.552;9.874;2024-02-26T11:41:26;8.02;;;6.18;;
13795;SDS011;40911;51.552;9.874;2024-02-26T11:43:51;9.82;;;6.50;;
13795;SDS011;40911;51.552;9.874;2024-02-26T11:46:25;10.38;;;6.43;;
13795;SDS011;40911;51.552;9.874;2024-02-26T11:48:56;8.35;;;6.18;;
13795;SDS011;40911;51.552;9.874;2024-02-26T11:51:20;9.35;;;6.07;;
13795;SDS011;40911;51.552;9.874;2024-02-26T11:53:46;7.28;;;5.93;;
13795;SDS011;40911;51.552;9.874;2024-02-26T11:56:12;10.57;;;7.22;;
13795;SDS011;40911;51.552;9.874;2024-02-26T11:58:44;10.93;;;6.18;;
13795;SDS011;40911;51.552;9.874;2024-02-26T12:01:06;10.02;;;6.20;;
13795;SDS011;40911;51.552;9.874;2024-02-26T12:03:49;8.55;;;6.57;;
13795;SDS011;40911;51.552;9.874;2024-02-26T12:06:10;8.73;;;6.35;;
13795;SDS011;40911;51.552;9.874;2024-02-26T12:08:32;10.05;;;5.88;;
13795;SDS011;40911;51.552;9.874;2024-02-26T12:10:56;11.60;;;5.60;;
13795;SDS011;40911;51.552;9.874;2024-02-26T12:18:04;16.30;;;6.22;;
13795;SDS011;40911;51.552;9.874;2024-02-26T12:20:27;6.85;;;5.70;;
13795;SDS011;40911;51.552;9.874;2024-02-26T12:22:49;7.00;;;5.60;;
13795;SDS011;40911;51.552;9.874;2024-02-26T12:25:13;8.85;;;5.85;;
13795;SDS011;40911;51.552;9.874;2024-02-26T12:27:35;11.85;;;6.07;;
13795;SDS011;40911;51.552;9.874;2024-02-26T12:29:56;8.68;;;6.10;;
13795;SDS011;40911;51.552;9.874;2024-02-26T12:32:18;9.32;;;6.05;;
13795;SDS011;40911;51.552;9.874;2024-02-26T12:34:40;11.30;;;6.38;;
13795;SDS011;40911;51.552;9.874;2024-02-26T12:37:03;7.90;;;6.13;;
13795;SDS011;40911;51.552;9.874;2024-02-26T12:39:24;10.43;;;6.18;;
13795;SDS011;40911;51.552;9.874;2024-02-26T12:41:46;8.45;;;6.05;;
13795;SDS011;40911;51.552;9.874;2024-02-26T12:44:09;9.57;;;5.78;;
13795;SDS011;40911;51.552;9.874;2024-02-26T12:46:31;9.80;;;5.78;;
13795;SDS011;40911;51.552;9.874;2024-02-26T12:48:54;8.63;;;5.25;;
13795;SDS011;40911;51.552;9.874;2024-02-26T12:51:18;8.68;;;5.95;;
13795;SDS011;40911;51.552;9.874;2024-02-26T12:53:42;11.10;;;5.88;;
13795;SDS011;40911;51.552;9.874;2024-02-26T12:56:05;7.68;;;5.50;;
13795;SDS011;40911;51.552;9.874;2024-02-26T12:58:28;7.68;;;5.45;;
13795;SDS011;40911;51.552;9.874;2024-02-26T13:00:52;6.85;;;5.60;;
13795;SDS011;40911;51.552;9.874;2024-02-26T13:03:14;9.32;;;5.93;;
13795;SDS011;40911;51.552;9.874;2024-02-26T13:05:36;10.40;;;5.88;;
13795;SDS011;40911;51.552;9.874;2024-02-26T13:07:57;11.10;;;5.60;;
13795;SDS011;40911;51.552;9.874;2024-02-26T13:10:21;8.82;;;5.68;;
13795;SDS011;40911;51.552;9.874;2024-02-26T13:12:43;7.32;;;5.68;;
13795;SDS011;40911;51.552;9.874;2024-02-26T13:15:05;7.38;;;5.65;;
13795;SDS011;40911;51.552;9.874;2024-02-26T13:17:27;9.23;;;5.60;;
13795;SDS011;40911;51.552;9.874;2024-02-26T13:19:53;8.50;;;5.43;;
13795;SDS011;40911;51.552;9.874;2024-02-26T13:24:36;7.03;;;5.25;;
13795;SDS011;40911;51.552;9.874;2024-02-26T13:26:59;6.40;;;5.20;;
13795;SDS011;40911;51.552;9.874;2024-02-26T13:29:21;8.05;;;5.47;;
13795;SDS011;40911;51.552;9.874;2024-02-26T13:31:42;6.75;;;5.22;;
13795;SDS011;40911;51.552;9.874;2024-02-26T13:34:04;9.30;;;5.50;;
13795;SDS011;40911;51.552;9.874;2024-02-26T13:38:50;7.45;;;5.50;;
13795;SDS011;40911;51.552;9.874;2024-02-26T13:41:13;7.63;;;5.30;;
13795;SDS011;40911;51.552;9.874;2024-02-26T13:43:35;7.25;;;5.35;;
13795;SDS011;40911;51.552;9.874;2024-02-26T13:45:57;9.50;;;6.15;;
13795;SDS011;40911;51.552;9.874;2024-02-26T13:48:19;8.30;;;5.57;;
13795;SDS011;40911;51.552;9.874;2024-02-26T13:50:40;7.43;;;4.95;;
13795;SDS011;40911;51.552;9.874;2024-02-26T13:53:03;8.43;;;5.47;;
13795;SDS011;40911;51.552;9.874;2024-02-26T13:55:25;10.07;;;5.30;;
13795;SDS011;40911;51.552;9.874;2024-02-26T13:57:48;9.27;;;5.47;;
13795;SDS011;40911;51.552;9.874;2024-02-26T14:00:13;9.52;;;5.75;;
13795;SDS011;40911;51.552;9.874;2024-02-26T14:02:36;8.90;;;5.15;;
13795;SDS011;40911;51.552;9.874;2024-02-26T14:04:57;9.23;;;5.82;;
13795;SDS011;40911;51.552;9.874;2024-02-26T14:07:24;9.82;;;5.68;;
13795;SDS011;40911;51.552;9.874;2024-02-26T14:09:45;9.07;;;5.80;;
13795;SDS011;40911;51.552;9.874;2024-02-26T14:12:07;9.88;;;5.55;;
13795;SDS011;40911;51.552;9.874;2024-02-26T14:14:29;7.93;;;5.25;;
13795;SDS011;40911;51.552;9.874;2024-02-26T14:16:54;10.27;;;5.85;;
13795;SDS011;40911;51.552;9.874;2024-02-26T14:19:15;9.32;;;5.88;;
13795;SDS011;40911;51.552;9.874;2024-02-26T14:21:38;9.05;;;5.65;;
13795;SDS011;40911;51.552;9.874;2024-02-26T14:24:00;9.02;;;5.95;;
13795;SDS011;40911;51.552;9.874;2024-02-26T14:26:21;8.65;;;6.43;;
13795;SDS011;40911;51.552;9.874;2024-02-26T14:28:43;10.07;;;6.38;;
13795;SDS011;40911;51.552;9.874;2024-02-26T14:31:05;10.70;;;6.50;;
13795;SDS011;40911;51.552;9.874;2024-02-26T14:33:31;10.52;;;5.88;;
13795;SDS011;40911;51.552;9.874;2024-02-26T14:35:53;11.18;;;6.90;;
13795;SDS011;40911;51.552;9.874;2024-02-26T14:38:14;12.30;;;7.00;;
13795;SDS011;40911;51.552;9.874;2024-02-26T14:42:59;9.68;;;6.43;;
13795;SDS011;40911;51.552;9.874;2024-02-26T14:47:42;8.23;;;6.40;;
13795;SDS011;40911;51.552;9.874;2024-02-26T14:50:05;8.63;;;6.43;;
13795;SDS011;40911;51.552;9.874;2024-02-26T14:52:27;8.73;;;5.78;;
13795;SDS011;40911;51.552;9.874;2024-02-26T14:54:49;11.50;;;6.68;;
13795;SDS011;40911;51.552;9.874;2024-02-26T14:57:12;9.32;;;6.00;;
13795;SDS011;40911;51.552;9.874;2024-02-26T14:59:34;7.43;;;5.97;;
13795;SDS011;40911;51.552;9.874;2024-02-26T15:01:57;11.90;;;6.50;;
13795;SDS011;40911;51.552;9.874;2024-02-26T15:04:19;7.90;;;6.07;;
13795;SDS011;40911;51.552;9.874;2024-02-26T15:06:42;9.48;;;6.10;;
13795;SDS011;40911;51.552;9.874;2024-02-26T15:09:04;9.30;;;6.00;;
13795;SDS011;40911;51.552;9.874;2024-02-26T15:11:25;10.52;;;6.72;;
13795;SDS011;40911;51.552;9.874;2024-02-26T15:13:47;8.45;;;6.22;;
13795;SDS011;40911;51.552;9.874;2024-02-26T15:16:09;9.05;;;6.90;;
13795;SDS011;40911;51.552;9.874;2024-02-26T15:18:38;12.75;;;6.97;;
13795;SDS011;40911;51.552;9.874;2024-02-26T15:21:00;8.55;;;6.10;;
13795;SDS011;40911;51.552;9.874;2024-02-26T15:23:24;8.50;;;6.05;;
13795;SDS011;40911;51.552;9.874;2024-02-26T15:25:48;11.95;;;6.95;;